Time;durP1;ratioP1;P1;durP2;ratioP2;P2;SDS_P1;SDS_P2;PMS_P1;PMS_P2;Temp;Humidity;BMP_temperature;BMP_pressure;BME280_temperature;BME280_humidity;BME280_pressure;Samples;Min_cycle;Max_cycle;Signal;HPM_P1;HPM_P2
2021/03/31 00:02:09;;;;;;;35.63;18.63;;;6.20;99.90;;;;;;5101853;28;20043;-88
2021/03/31 00:04:36;;;;;;;39.30;19.85;;;6.20;99.90;;;;;;5092697;28;20039;-88
2021/03/31 00:07:05;;;;;;;37.20;19.75;;;6.20;99.90;;;;;;5121578;27;20380;-88
2021/03/31 00:09:31;;;;;;;35.20;19.85;;;6.20;99.90;;;;;;5099279;28;20047;-88
2021/03/31 00:11:57;;;;;;;36.78;19.17;;;6.20;99.90;;;;;;5095573;28;20050;-89
2021/03/31 00:14:23;;;;;;;42.13;19.48;;;6.10;99.90;;;;;;5111650;28;20039;-88
2021/03/31 00:16:49;;;;;;;37.60;19.15;;;6.10;99.90;;;;;;5111032;28;20794;-87
2021/03/31 00:19:14;;;;;;;50.60;22.63;;;6.10;99.90;;;;;;5094599;28;20039;-87
2021/03/31 00:21:40;;;;;;;37.70;19.73;;;6.10;99.90;;;;;;5123752;28;20130;-88
2021/03/31 00:24:06;;;;;;;37.30;20.67;;;6.00;99.90;;;;;;5085626;28;20043;-87
2021/03/31 00:26:32;;;;;;;44.28;22.55;;;6.00;99.90;;;;;;5116098;27;20483;-88
2021/03/31 00:28:58;;;;;;;38.25;21.08;;;6.00;99.90;;;;;;5123405;27;20043;-87
2021/03/31 00:31:24;;;;;;;35.03;19.58;;;6.00;99.90;;;;;;5106396;28;20063;-87
2021/03/31 00:33:50;;;;;;;39.35;20.98;;;6.00;99.90;;;;;;5085782;27;20126;-88
2021/03/31 00:36:16;;;;;;;39.67;21.17;;;5.90;99.90;;;;;;5114663;27;20040;-88
2021/03/31 00:38:42;;;;;;;44.80;21.60;;;5.90;99.90;;;;;;5095521;28;20043;-88
2021/03/31 00:41:07;;;;;;;47.15;21.17;;;6.00;99.90;;;;;;5124234;27;20063;-88
2021/03/31 00:43:33;;;;;;;45.72;21.65;;;5.90;99.90;;;;;;5097598;28;20067;-88
2021/03/31 00:45:59;;;;;;;49.10;22.88;;;5.80;99.90;;;;;;5103499;27;20043;-88
2021/03/31 00:48:25;;;;;;;43.70;23.10;;;5.90;99.90;;;;;;5114192;27;20039;-87
2021/03/31 00:50:56;;;;;;;49.45;22.65;;;5.80;99.90;;;;;;5107258;28;20035;-87
2021/03/31 00:53:27;;;;;;;51.53;24.80;;;5.90;99.90;;;;;;5072056;28;20437;-88
2021/03/31 00:55:54;;;;;;;45.47;22.08;;;5.90;99.90;;;;;;5125620;27;20395;-88
2021/03/31 00:58:20;;;;;;;46.22;23.90;;;5.90;99.90;;;;;;5108262;27;20035;-88
2021/03/31 01:00:46;;;;;;;42.63;23.20;;;5.90;99.90;;;;;;5095653;27;20414;-88
2021/03/31 01:03:13;;;;;;;47.47;22.42;;;5.80;99.90;;;;;;5103231;28;20031;-87
2021/03/31 01:05:39;;;;;;;42.35;21.02;;;5.80;99.90;;;;;;5094699;28;20070;-87
2021/03/31 01:08:05;;;;;;;46.58;22.02;;;5.80;99.90;;;;;;5091866;27;20054;-88
2021/03/31 01:10:39;;;;;;;52.63;23.80;;;5.70;99.90;;;;;;5118350;27;20040;-88
2021/03/31 01:13:55;;;;;;;50.90;23.52;;;5.70;99.90;;;;;;5093770;28;20538;-87
2021/03/31 01:16:46;;;;;;;49.15;22.85;;;5.60;99.90;;;;;;5090158;28;20051;-88
2021/03/31 01:19:41;;;;;;;49.17;24.23;;;5.50;99.90;;;;;;5111711;28;20076;-87
2021/03/31 01:22:22;;;;;;;58.75;25.85;;;5.50;99.90;;;;;;5112195;27;20074;-87
2021/03/31 01:24:59;;;;;;;56.83;25.50;;;5.50;99.90;;;;;;5126704;27;20035;-86
2021/03/31 01:27:36;;;;;;;47.55;24.48;;;5.50;99.90;;;;;;5125079;27;20503;-87
2021/03/31 01:30:38;;;;;;;66.50;23.15;;;5.40;99.90;;;;;;5106137;28;20047;-88
2021/03/31 01:33:25;;;;;;;49.60;21.67;;;5.40;99.90;;;;;;5095268;28;20036;-87
2021/03/31 01:35:54;;;;;;;65.20;28.85;;;5.40;99.90;;;;;;5104657;27;20141;-87
2021/03/31 01:38:23;;;;;;;51.92;25.52;;;5.40;99.90;;;;;;5110872;27;20047;-88
2021/03/31 01:40:51;;;;;;;55.97;25.70;;;5.50;99.90;;;;;;5093797;28;20052;-87
2021/03/31 01:43:20;;;;;;;62.20;26.17;;;5.50;99.90;;;;;;5112131;27;20046;-87
2021/03/31 01:45:53;;;;;;;54.78;25.08;;;5.40;99.90;;;;;;5121667;27;20165;-88
2021/03/31 01:48:32;;;;;;;64.15;27.85;;;5.40;99.90;;;;;;5111327;28;20387;-88
2021/03/31 01:51:02;;;;;;;60.65;27.33;;;5.40;99.90;;;;;;5094919;28;20506;-87
2021/03/31 01:53:29;;;;;;;61.28;27.50;;;5.40;99.90;;;;;;5109579;27;20039;-88
2021/03/31 01:55:56;;;;;;;66.07;26.55;;;5.40;99.90;;;;;;5114187;27;20118;-87
2021/03/31 01:58:22;;;;;;;54.10;24.40;;;5.40;99.90;;;;;;5110379;27;20507;-88
2021/03/31 02:00:50;;;;;;;56.75;25.52;;;5.40;99.90;;;;;;5116818;27;20044;-87
2021/03/31 02:03:19;;;;;;;47.28;23.50;;;5.40;99.90;;;;;;5105549;27;20046;-88
2021/03/31 02:05:46;;;;;;;61.92;24.55;;;5.20;99.90;;;;;;5098964;28;20043;-89
2021/03/31 02:08:13;;;;;;;59.75;26.20;;;5.10;99.90;;;;;;5102099;27;20051;-86
2021/03/31 02:10:40;;;;;;;55.85;23.90;;;5.20;99.90;;;;;;5115185;27;20043;-87
2021/03/31 02:13:08;;;;;;;48.90;22.70;;;5.20;99.90;;;;;;5094731;27;20491;-88
2021/03/31 02:15:35;;;;;;;59.95;27.88;;;5.00;99.90;;;;;;5108681;27;20035;-89
2021/03/31 02:18:06;;;;;;;69.30;26.40;;;5.10;99.90;;;;;;5088491;28;20047;-89
2021/03/31 02:20:34;;;;;;;59.78;26.23;;;5.10;99.90;;;;;;5111162;27;20044;-87
2021/03/31 02:23:01;;;;;;;75.45;27.92;;;5.10;99.90;;;;;;5099820;28;20050;-86
2021/03/31 02:25:27;;;;;;;60.03;27.83;;;5.00;99.90;;;;;;5124112;27;20427;-87
2021/03/31 02:27:52;;;;;;;65.30;27.75;;;5.00;99.90;;;;;;5092806;27;20069;-89
2021/03/31 02:30:22;;;;;;;72.13;28.92;;;5.00;99.90;;;;;;5090833;27;20038;-87
2021/03/31 02:32:51;;;;;;;78.50;30.17;;;5.00;99.90;;;;;;5111944;27;20129;-87
2021/03/31 02:35:22;;;;;;;88.80;32.17;;;5.00;99.90;;;;;;5112193;27;20482;-87
2021/03/31 02:37:58;;;;;;;69.43;28.90;;;5.10;99.90;;;;;;5131203;27;20050;-86
2021/03/31 02:40:26;;;;;;;61.65;27.23;;;5.10;99.90;;;;;;5112291;27;20490;-87
2021/03/31 02:42:54;;;;;;;55.53;25.65;;;5.10;99.90;;;;;;5131183;27;20486;-87
2021/03/31 02:45:23;;;;;;;68.32;27.52;;;5.20;99.90;;;;;;5129946;27;20092;-87
2021/03/31 02:47:50;;;;;;;64.82;27.60;;;5.10;99.90;;;;;;5130924;27;20046;-87
2021/03/31 02:50:19;;;;;;;65.45;27.80;;;5.10;99.90;;;;;;5129942;27;20031;-88
2021/03/31 02:52:48;;;;;;;68.05;28.23;;;5.10;99.90;;;;;;5131057;27;20047;-88
2021/03/31 02:55:16;;;;;;;75.65;29.98;;;5.10;99.90;;;;;;5130380;27;20035;-90
2021/03/31 02:57:43;;;;;;;71.05;29.55;;;4.90;99.90;;;;;;5095759;27;20035;-88
2021/03/31 03:00:11;;;;;;;82.55;30.17;;;4.90;99.90;;;;;;5111363;27;20046;-88
2021/03/31 03:02:39;;;;;;;84.15;32.00;;;4.90;99.90;;;;;;5126427;27;20051;-87
2021/03/31 03:05:07;;;;;;;71.90;30.13;;;4.90;99.90;;;;;;5111884;27;20069;-88
2021/03/31 03:07:34;;;;;;;70.07;30.40;;;4.90;99.90;;;;;;5112311;27;20043;-88
2021/03/31 03:10:01;;;;;;;85.55;31.85;;;5.00;99.90;;;;;;5120265;27;20479;-88
2021/03/31 03:12:28;;;;;;;83.00;33.20;;;5.00;99.90;;;;;;5091600;28;20487;-88
2021/03/31 03:14:55;;;;;;;102.00;35.38;;;5.00;99.90;;;;;;5116443;27;20084;-88
2021/03/31 03:17:21;;;;;;;83.60;32.17;;;5.00;99.90;;;;;;5096654;28;20039;-88
2021/03/31 03:19:48;;;;;;;69.45;28.88;;;5.00;99.90;;;;;;5091957;28;20092;-88
2021/03/31 03:22:15;;;;;;;76.43;27.90;;;5.00;99.90;;;;;;5122500;27;20035;-88
2021/03/31 03:24:47;;;;;;;71.32;27.42;;;5.00;99.90;;;;;;5093831;27;20044;-88
2021/03/31 03:27:15;;;;;;;78.63;30.15;;;4.80;99.90;;;;;;5117701;27;20047;-88
2021/03/31 03:29:48;;;;;;;73.72;29.85;;;4.80;99.90;;;;;;5110535;27;20134;-87
2021/03/31 03:32:16;;;;;;;84.15;31.70;;;4.80;99.90;;;;;;5099891;28;20039;-87
2021/03/31 03:34:43;;;;;;;79.45;30.85;;;4.70;99.90;;;;;;5109619;27;20048;-88
2021/03/31 03:37:09;;;;;;;102.38;34.92;;;4.80;99.90;;;;;;5129254;27;20043;-88
2021/03/31 03:39:36;;;;;;;92.60;33.45;;;4.70;99.90;;;;;;5114067;27;20050;-88
2021/03/31 03:42:02;;;;;;;102.57;35.50;;;4.70;99.90;;;;;;5099202;27;20486;-88
2021/03/31 03:44:31;;;;;;;109.55;35.97;;;4.70;99.90;;;;;;5115500;27;20077;-88
2021/03/31 03:46:58;;;;;;;105.40;37.65;;;4.80;99.90;;;;;;5099563;28;20047;-88
2021/03/31 03:49:25;;;;;;;123.25;41.95;;;4.70;99.90;;;;;;5090947;28;20096;-88
2021/03/31 03:51:51;;;;;;;124.78;41.63;;;4.80;99.90;;;;;;5109242;28;20032;-88
2021/03/31 03:54:17;;;;;;;117.22;39.05;;;4.80;99.90;;;;;;5119974;27;20047;-88
2021/03/31 03:56:50;;;;;;;128.07;41.28;;;4.70;99.90;;;;;;5112792;27;20054;-88
2021/03/31 03:59:24;;;;;;;130.57;41.83;;;4.70;99.90;;;;;;5117670;27;20040;-88
2021/03/31 04:01:51;;;;;;;135.00;40.05;;;4.80;99.90;;;;;;5108971;28;20049;-88
2021/03/31 04:04:18;;;;;;;132.90;42.90;;;4.70;99.90;;;;;;5101273;28;20051;-88
2021/03/31 04:06:44;;;;;;;113.32;40.65;;;4.70;99.90;;;;;;5109705;28;20055;-88
2021/03/31 04:09:10;;;;;;;116.15;39.90;;;4.70;99.90;;;;;;5090990;28;20047;-88
2021/03/31 04:11:38;;;;;;;117.60;39.90;;;4.70;99.90;;;;;;5092460;28;20433;-88
2021/03/31 04:14:05;;;;;;;107.88;39.15;;;4.80;99.90;;;;;;5111017;28;20093;-88
2021/03/31 04:16:33;;;;;;;120.50;40.42;;;4.80;99.90;;;;;;5102680;28;20104;-88
2021/03/31 04:19:05;;;;;;;109.32;40.10;;;4.70;99.90;;;;;;5091034;28;20039;-88
2021/03/31 04:21:34;;;;;;;117.22;39.50;;;4.70;99.90;;;;;;5108895;28;20471;-88
2021/03/31 04:24:00;;;;;;;115.05;39.95;;;4.80;99.90;;;;;;5109585;28;20471;-88
2021/03/31 04:26:28;;;;;;;118.93;40.40;;;4.70;99.90;;;;;;5091293;28;20127;-88
2021/03/31 04:28:55;;;;;;;111.75;38.47;;;4.70;99.90;;;;;;5099776;28;20035;-88
2021/03/31 04:31:22;;;;;;;102.40;39.83;;;4.70;99.90;;;;;;5092593;28;20039;-89
2021/03/31 04:33:50;;;;;;;98.15;37.92;;;4.70;99.90;;;;;;5111304;28;20071;-88
2021/03/31 04:36:16;;;;;;;119.97;40.50;;;4.80;99.90;;;;;;5114447;28;20059;-88
2021/03/31 04:38:46;;;;;;;110.18;40.05;;;4.80;99.90;;;;;;5094542;28;20122;-88
2021/03/31 04:41:12;;;;;;;127.50;46.92;;;4.80;99.90;;;;;;5095220;28;20055;-88
2021/03/31 04:43:38;;;;;;;118.32;43.22;;;4.90;99.90;;;;;;5109488;28;20043;-88
2021/03/31 04:46:08;;;;;;;131.65;45.83;;;4.90;99.90;;;;;;5091156;28;20051;-88
2021/03/31 04:48:33;;;;;;;137.73;43.78;;;4.90;99.90;;;;;;5121268;28;20054;-88
2021/03/31 04:50:59;;;;;;;135.48;48.95;;;5.00;99.90;;;;;;5086192;28;20119;-88
2021/03/31 04:53:25;;;;;;;119.35;44.88;;;5.10;99.90;;;;;;5076588;28;20082;-87
2021/03/31 04:55:51;;;;;;;107.53;44.83;;;5.30;99.90;;;;;;5129459;28;20053;-88
2021/03/31 04:58:17;;;;;;;116.93;44.05;;;5.20;99.90;;;;;;5093327;28;20051;-88
2021/03/31 05:00:42;;;;;;;110.97;43.72;;;5.30;99.90;;;;;;5103673;28;20438;-88
2021/03/31 05:03:09;;;;;;;116.43;44.83;;;5.30;99.90;;;;;;5097134;28;20048;-88
2021/03/31 05:05:35;;;;;;;116.30;43.35;;;5.30;99.90;;;;;;5073592;28;20055;-88
2021/03/31 05:08:01;;;;;;;110.53;40.78;;;5.30;99.90;;;;;;5120996;28;20159;-88
2021/03/31 05:10:27;;;;;;;104.00;39.58;;;5.30;99.90;;;;;;5100659;28;20040;-87
2021/03/31 05:12:53;;;;;;;99.88;39.67;;;5.30;99.90;;;;;;5080519;28;20445;-88
2021/03/31 05:15:19;;;;;;;94.10;37.70;;;5.20;99.90;;;;;;5088586;27;20126;-87
2021/03/31 05:17:45;;;;;;;87.40;36.13;;;5.30;99.90;;;;;;5096310;28;20124;-87
2021/03/31 05:20:12;;;;;;;83.68;35.08;;;5.20;99.90;;;;;;5087374;27;20035;-87
2021/03/31 05:22:38;;;;;;;92.80;36.38;;;5.20;99.90;;;;;;5120784;27;20947;-88
2021/03/31 05:25:05;;;;;;;89.85;37.58;;;5.10;99.90;;;;;;5112600;28;20039;-88
2021/03/31 05:27:32;;;;;;;79.72;35.72;;;5.10;99.90;;;;;;5093595;28;20471;-88
2021/03/31 05:29:59;;;;;;;86.43;35.47;;;5.10;99.90;;;;;;5119030;27;20035;-88
2021/03/31 05:32:25;;;;;;;86.88;35.67;;;5.10;99.90;;;;;;5121766;27;20437;-88
2021/03/31 05:34:52;;;;;;;80.68;34.67;;;5.10;99.90;;;;;;5113386;27;20036;-88
2021/03/31 05:37:18;;;;;;;85.03;33.58;;;5.10;99.90;;;;;;5093793;28;20051;-87
2021/03/31 05:39:44;;;;;;;83.15;33.80;;;5.00;99.90;;;;;;5107878;27;20049;-88
2021/03/31 05:42:10;;;;;;;63.47;30.30;;;5.00;99.90;;;;;;5102220;27;20039;-88
2021/03/31 05:44:36;;;;;;;64.60;30.02;;;5.00;99.90;;;;;;5128899;27;20145;-88
2021/03/31 05:47:04;;;;;;;70.22;31.48;;;4.90;99.90;;;;;;5079979;27;20039;-88
2021/03/31 05:49:31;;;;;;;63.08;31.40;;;5.00;99.90;;;;;;5078837;27;20057;-88
2021/03/31 05:51:57;;;;;;;79.13;30.63;;;5.00;99.90;;;;;;5126862;27;20039;-88
2021/03/31 05:54:24;;;;;;;66.63;29.67;;;5.00;99.90;;;;;;5116829;27;20112;-88
2021/03/31 05:56:54;;;;;;;62.15;28.88;;;5.00;99.90;;;;;;5113902;27;20027;-88
2021/03/31 05:59:20;;;;;;;57.45;29.83;;;5.10;99.90;;;;;;5113407;27;20035;-89
2021/03/31 06:01:47;;;;;;;61.53;28.40;;;5.10;99.90;;;;;;5109527;27;20146;-89
2021/03/31 06:04:16;;;;;;;69.97;30.33;;;5.20;99.90;;;;;;5113437;27;20031;-86
2021/03/31 06:06:42;;;;;;;66.75;30.10;;;5.20;99.90;;;;;;5112948;27;20074;-86
2021/03/31 06:09:08;;;;;;;69.45;28.15;;;5.30;99.90;;;;;;5128850;27;20095;-86
2021/03/31 06:11:57;;;;;;;58.05;28.55;;;5.30;99.90;;;;;;5116889;27;20039;-87
2021/03/31 06:14:32;;;;;;;53.25;26.67;;;5.40;99.90;;;;;;5092173;28;20035;-86
2021/03/31 06:17:17;;;;;;;59.50;28.35;;;5.40;99.90;;;;;;5121468;27;20042;-87
2021/03/31 06:19:45;;;;;;;61.45;28.48;;;5.50;99.90;;;;;;5099415;27;20100;-86
2021/03/31 06:22:37;;;;;;;54.47;27.92;;;5.50;99.90;;;;;;5095906;27;20043;-87
2021/03/31 06:25:23;;;;;;;50.42;27.85;;;5.50;99.90;;;;;;5095221;27;20039;-87
2021/03/31 06:27:54;;;;;;;50.28;26.42;;;5.60;99.90;;;;;;5098954;27;20479;-86
2021/03/31 06:30:24;;;;;;;50.55;26.48;;;5.80;99.90;;;;;;5109019;27;20046;-86
2021/03/31 06:32:53;;;;;;;44.80;24.02;;;5.70;99.90;;;;;;5098670;27;20043;-85
2021/03/31 06:35:28;;;;;;;50.30;25.73;;;5.80;99.90;;;;;;5116574;27;20046;-86
2021/03/31 06:38:07;;;;;;;39.30;22.90;;;5.90;99.90;;;;;;5119521;27;20067;-86
2021/03/31 06:40:45;;;;;;;47.88;25.38;;;6.00;99.90;;;;;;5107179;28;20061;-86
2021/03/31 06:43:38;;;;;;;48.80;24.88;;;6.00;99.90;;;;;;5113731;28;20051;-87
2021/03/31 06:46:13;;;;;;;52.63;24.23;;;6.10;99.90;;;;;;5098241;28;20044;-86
2021/03/31 06:48:44;;;;;;;51.38;24.45;;;6.20;99.90;;;;;;5119074;27;20042;-86
2021/03/31 06:51:29;;;;;;;39.88;24.00;;;6.30;99.90;;;;;;5120168;27;20046;-87
2021/03/31 06:54:16;;;;;;;43.67;24.85;;;6.40;99.90;;;;;;5105069;27;20042;-86
2021/03/31 06:56:54;;;;;;;51.75;25.25;;;6.40;99.90;;;;;;5112997;27;20042;-87
2021/03/31 06:59:32;;;;;;;40.78;22.50;;;6.50;99.90;;;;;;5114300;28;20437;-88
2021/03/31 07:02:00;;;;;;;44.25;22.85;;;6.60;99.90;;;;;;5114291;27;20043;-87
2021/03/31 07:04:28;;;;;;;43.47;22.88;;;6.80;99.90;;;;;;5135031;27;20035;-86
2021/03/31 07:07:09;;;;;;;41.75;24.17;;;6.90;99.90;;;;;;5115781;27;20065;-87
2021/03/31 07:09:36;;;;;;;47.55;24.08;;;7.00;99.90;;;;;;5126868;27;20036;-86
2021/03/31 07:12:15;;;;;;;44.33;25.10;;;7.00;99.90;;;;;;5128198;27;20043;-86
2021/03/31 07:14:42;;;;;;;49.00;25.63;;;7.30;99.90;;;;;;5104207;27;20043;-86
2021/03/31 07:17:08;;;;;;;45.78;25.27;;;7.20;99.90;;;;;;5110890;27;20087;-86
2021/03/31 07:19:34;;;;;;;47.70;25.50;;;7.30;99.90;;;;;;5096951;27;20039;-86
2021/03/31 07:22:01;;;;;;;41.70;23.65;;;7.30;99.90;;;;;;5097239;27;20053;-86
2021/03/31 07:24:27;;;;;;;40.35;22.40;;;7.50;99.90;;;;;;5097831;27;20055;-85
2021/03/31 07:26:54;;;;;;;48.08;24.88;;;7.50;99.90;;;;;;5133403;27;20550;-86
2021/03/31 07:29:22;;;;;;;40.03;22.73;;;7.60;99.90;;;;;;5132998;27;20794;-86
2021/03/31 07:31:49;;;;;;;42.60;24.02;;;7.70;99.90;;;;;;5112852;27;20122;-85
2021/03/31 07:34:22;;;;;;;49.30;21.98;;;7.80;99.90;;;;;;5115080;27;20046;-86
2021/03/31 07:36:49;;;;;;;44.85;22.70;;;7.90;99.90;;;;;;5122302;27;20180;-86
2021/03/31 07:39:24;;;;;;;40.38;21.85;;;8.10;99.90;;;;;;5130205;27;20058;-87
2021/03/31 07:41:51;;;;;;;38.78;22.30;;;8.20;99.90;;;;;;5126732;27;20130;-86
2021/03/31 07:44:22;;;;;;;38.17;22.35;;;8.40;99.90;;;;;;5125410;27;20389;-86
2021/03/31 07:46:49;;;;;;;37.50;23.10;;;8.50;99.90;;;;;;5099792;28;20044;-87
2021/03/31 07:49:16;;;;;;;38.55;22.20;;;8.60;99.90;;;;;;5114184;27;20550;-86
2021/03/31 07:52:01;;;;;;;42.00;23.20;;;8.70;99.90;;;;;;5103558;27;20047;-86
2021/03/31 07:54:28;;;;;;;41.42;22.33;;;8.80;99.90;;;;;;5111271;28;20042;-87
2021/03/31 07:56:57;;;;;;;33.92;20.40;;;8.90;99.90;;;;;;5111254;27;20456;-87
2021/03/31 07:59:23;;;;;;;29.35;18.50;;;9.10;99.90;;;;;;5093117;28;20436;-85
2021/03/31 08:01:52;;;;;;;33.50;18.42;;;9.20;99.90;;;;;;5106136;28;20043;-86
2021/03/31 08:04:20;;;;;;;36.17;19.58;;;9.30;99.90;;;;;;5101076;28;20478;-86
2021/03/31 08:06:51;;;;;;;36.38;19.90;;;9.50;99.90;;;;;;5128308;28;20050;-85
2021/03/31 08:09:26;;;;;;;36.20;19.95;;;9.60;99.90;;;;;;5106666;28;20055;-85
2021/03/31 08:11:53;;;;;;;33.58;18.92;;;9.70;99.90;;;;;;5097128;28;20190;-86
2021/03/31 08:14:30;;;;;;;30.40;18.50;;;9.80;99.90;;;;;;5123247;28;20359;-86
2021/03/31 08:17:01;;;;;;;34.47;19.65;;;9.90;99.90;;;;;;5120975;28;20039;-86
2021/03/31 08:19:31;;;;;;;37.03;18.55;;;10.00;99.90;;;;;;5125110;28;20035;-85
2021/03/31 08:21:59;;;;;;;30.10;18.92;;;10.10;99.90;;;;;;5119896;28;20080;-85
2021/03/31 08:25:04;;;;;;;31.75;17.58;;;10.30;99.90;;;;;;5123762;28;20047;-86
2021/03/31 08:27:30;;;;;;;33.95;18.75;;;10.50;99.90;;;;;;5083912;28;20104;-86
2021/03/31 08:29:57;;;;;;;31.48;18.55;;;10.70;99.90;;;;;;5093650;28;20475;-86
2021/03/31 08:32:25;;;;;;;30.83;18.60;;;10.80;99.90;;;;;;5120881;28;20431;-86
2021/03/31 08:34:52;;;;;;;37.53;17.48;;;10.90;99.90;;;;;;5109275;28;20031;-86
2021/03/31 08:37:24;;;;;;;35.00;17.65;;;11.10;99.90;;;;;;5094525;28;20498;-86
2021/03/31 08:39:51;;;;;;;33.60;19.00;;;11.40;99.90;;;;;;5128609;28;20068;-86
2021/03/31 08:42:17;;;;;;;31.25;18.90;;;11.40;99.90;;;;;;5129577;28;20129;-86
2021/03/31 08:44:49;;;;;;;28.80;17.80;;;11.50;99.90;;;;;;5092902;28;20180;-86
2021/03/31 08:47:19;;;;;;;33.00;19.63;;;11.60;99.90;;;;;;5111427;27;20463;-86
2021/03/31 08:50:08;;;;;;;33.08;17.55;;;11.70;99.90;;;;;;5113555;27;20035;-86
2021/03/31 08:52:37;;;;;;;36.67;18.80;;;11.80;99.90;;;;;;5132640;27;20394;-86
2021/03/31 08:55:11;;;;;;;34.00;19.08;;;11.90;99.90;;;;;;5114144;27;20440;-86
2021/03/31 08:57:37;;;;;;;34.55;18.60;;;12.10;99.90;;;;;;5113920;27;20051;-86
2021/03/31 09:00:08;;;;;;;36.92;18.70;;;12.10;99.90;;;;;;5132887;27;20403;-86
2021/03/31 09:02:35;;;;;;;32.80;18.70;;;12.20;99.90;;;;;;5108376;27;20034;-86
2021/03/31 09:05:03;;;;;;;35.08;19.42;;;12.30;99.90;;;;;;5132493;27;20487;-87
2021/03/31 09:07:29;;;;;;;35.70;19.48;;;12.30;99.90;;;;;;5096227;27;20048;-86
2021/03/31 09:09:56;;;;;;;35.10;18.95;;;12.40;99.90;;;;;;5113220;27;20616;-86
2021/03/31 09:12:24;;;;;;;37.28;17.83;;;12.50;99.90;;;;;;5116743;27;20046;-87
2021/03/31 09:14:55;;;;;;;32.42;18.58;;;12.60;99.90;;;;;;5095198;28;20060;-86
2021/03/31 09:17:23;;;;;;;32.65;18.67;;;12.80;99.90;;;;;;5112125;28;20118;-87
2021/03/31 09:19:58;;;;;;;31.85;17.83;;;12.90;99.90;;;;;;5122748;27;20291;-86
2021/03/31 09:22:28;;;;;;;37.83;18.50;;;13.10;99.90;;;;;;5099937;28;20075;-87
2021/03/31 09:25:04;;;;;;;33.03;18.55;;;13.30;99.90;;;;;;5117368;27;20395;-86
2021/03/31 09:27:31;;;;;;;38.45;18.58;;;13.30;99.90;;;;;;5124932;27;20051;-89
2021/03/31 09:30:01;;;;;;;35.75;19.13;;;13.40;99.90;;;;;;5129960;27;20043;-88
2021/03/31 09:32:36;;;;;;;35.58;18.30;;;13.60;99.90;;;;;;5134309;27;20038;-89
2021/03/31 09:35:10;;;;;;;35.22;17.85;;;13.80;99.90;;;;;;5108498;27;20925;-90
2021/03/31 09:37:46;;;;;;;29.90;17.90;;;13.90;99.90;;;;;;5099833;28;20043;-90
2021/03/31 09:40:23;;;;;;;34.20;18.27;;;14.00;99.90;;;;;;5102489;27;20051;-90
2021/03/31 09:43:00;;;;;;;35.05;20.13;;;14.00;99.90;;;;;;5124406;27;20048;-90
2021/03/31 09:45:29;;;;;;;28.83;18.10;;;14.10;99.90;;;;;;5127812;27;20031;-89
2021/03/31 09:47:56;;;;;;;30.05;17.23;;;14.20;99.90;;;;;;5096220;27;20035;-89
2021/03/31 09:50:27;;;;;;;27.00;17.60;;;14.40;99.90;;;;;;5096460;27;20039;-89
2021/03/31 09:52:54;;;;;;;29.63;18.52;;;14.50;99.90;;;;;;5112592;27;20075;-88
2021/03/31 09:55:21;;;;;;;31.88;17.85;;;14.50;99.90;;;;;;5113644;27;20699;-89
2021/03/31 09:57:50;;;;;;;35.80;17.13;;;14.60;99.90;;;;;;5132189;27;20039;-91
2021/03/31 10:00:17;;;;;;;35.65;18.90;;;14.80;99.90;;;;;;5113487;27;20138;-89
2021/03/31 10:02:44;;;;;;;35.47;18.50;;;14.90;99.90;;;;;;5079429;27;20455;-89
2021/03/31 10:05:14;;;;;;;31.65;18.65;;;15.00;99.90;;;;;;5113798;27;20035;-90
2021/03/31 10:07:41;;;;;;;35.05;19.00;;;15.20;99.90;;;;;;5113500;27;20035;-90
2021/03/31 10:10:08;;;;;;;31.13;17.95;;;15.30;99.90;;;;;;5095463;27;20057;-90
2021/03/31 10:12:35;;;;;;;35.78;18.48;;;15.40;99.90;;;;;;5111915;27;20126;-91
2021/03/31 10:15:05;;;;;;;32.50;18.25;;;15.60;99.90;;;;;;5122893;27;20071;-91
2021/03/31 10:17:32;;;;;;;32.13;17.70;;;15.70;99.90;;;;;;5126572;27;20126;-92
2021/03/31 10:20:14;;;;;;;32.88;17.88;;;15.90;99.90;;;;;;5129280;27;20100;-92
2021/03/31 10:22:41;;;;;;;33.33;18.17;;;16.10;99.90;;;;;;5111278;27;20091;-92
2021/03/31 10:25:21;;;;;;;31.85;18.50;;;16.20;99.90;;;;;;5084672;27;20189;-92
2021/03/31 10:27:48;;;;;;;30.42;18.23;;;16.40;99.90;;;;;;5112004;27;20035;-90
2021/03/31 10:30:27;;;;;;;33.38;18.75;;;16.60;99.90;;;;;;5128740;27;20035;-92
2021/03/31 10:32:54;;;;;;;33.92;19.05;;;16.70;99.90;;;;;;5111859;28;20058;-92
2021/03/31 10:35:43;;;;;;;44.00;18.83;;;16.80;99.90;;;;;;5122623;27;20043;-92
2021/03/31 10:38:17;;;;;;;33.78;18.70;;;16.90;99.90;;;;;;5093465;27;20047;-93
2021/03/31 10:54:14;;;;;;;29.35;17.60;;;17.10;96.00;;;;;;5111677;27;20050;-94
2021/03/31 10:56:47;;;;;;;34.83;18.55;;;17.20;92.70;;;;;;5113020;27;20062;-91
2021/03/31 10:59:13;;;;;;;37.05;19.00;;;17.20;94.60;;;;;;5123380;27;20039;-91
2021/03/31 11:01:39;;;;;;;29.27;17.20;;;17.20;93.90;;;;;;5090990;27;20035;-91
2021/03/31 11:04:05;;;;;;;30.63;18.30;;;17.30;94.00;;;;;;5067399;27;20108;-91
2021/03/31 11:06:32;;;;;;;29.80;20.13;;;17.30;99.00;;;;;;5093266;28;20088;-91
2021/03/31 11:08:59;;;;;;;31.77;18.77;;;17.30;99.90;;;;;;5129068;27;20505;-91
2021/03/31 11:11:24;;;;;;;32.38;18.65;;;17.30;99.90;;;;;;5095884;27;20043;-91
2021/03/31 11:13:51;;;;;;;27.08;19.10;;;17.20;99.90;;;;;;5098417;28;20040;-90
2021/03/31 11:16:21;;;;;;;34.33;18.73;;;17.20;99.90;;;;;;5086494;27;20050;-91
2021/03/31 11:26:25;;;;;;;32.45;19.45;;;17.50;99.90;;;;;;5114062;27;20039;-90
2021/03/31 11:28:51;;;;;;;34.78;18.73;;;17.60;99.90;;;;;;5125631;27;20054;-90
2021/03/31 11:31:39;;;;;;;32.72;19.80;;;17.70;99.90;;;;;;5081234;28;20055;-91
2021/03/31 11:34:24;;;;;;;28.15;18.77;;;17.80;99.90;;;;;;5118965;27;20082;-91
2021/03/31 11:36:53;;;;;;;30.40;18.65;;;17.90;99.90;;;;;;5112200;27;20119;-91
2021/03/31 11:39:19;;;;;;;31.40;19.20;;;18.00;98.30;;;;;;5095364;27;20065;-91
2021/03/31 11:41:46;;;;;;;34.03;18.63;;;18.00;99.60;;;;;;5098604;28;20071;-91
2021/03/31 11:44:32;;;;;;;32.90;19.20;;;18.00;97.30;;;;;;5081452;27;20050;-91
2021/03/31 11:46:57;;;;;;;34.80;19.50;;;18.00;97.80;;;;;;5094343;27;20037;-91
2021/03/31 11:49:23;;;;;;;38.55;18.73;;;18.00;99.90;;;;;;5106768;27;20031;-91
2021/03/31 11:51:49;;;;;;;32.75;19.65;;;18.00;98.40;;;;;;5130043;27;20134;-90
2021/03/31 11:54:15;;;;;;;32.47;19.67;;;18.00;99.00;;;;;;5093690;28;20038;-91
2021/03/31 11:56:40;;;;;;;33.42;19.85;;;18.00;99.50;;;;;;5093105;27;20043;-91
2021/03/31 11:59:06;;;;;;;30.67;18.40;;;18.00;99.90;;;;;;5093271;27;20071;-91
2021/03/31 12:01:35;;;;;;;33.53;20.30;;;18.10;99.90;;;;;;5111759;28;20380;-91
2021/03/31 12:04:01;;;;;;;31.75;18.95;;;18.30;99.90;;;;;;5095201;28;20043;-91
2021/03/31 12:06:46;;;;;;;27.52;18.08;;;18.40;99.90;;;;;;5089279;28;20039;-91
2021/03/31 12:09:13;;;;;;;38.28;19.92;;;18.50;99.90;;;;;;5098985;28;20037;-91
2021/03/31 12:11:59;;;;;;;34.30;20.25;;;18.60;99.00;;;;;;5086901;28;20505;-92
2021/03/31 12:14:25;;;;;;;35.05;20.17;;;18.60;97.60;;;;;;5097444;28;20031;-90
2021/03/31 12:16:50;;;;;;;31.25;20.80;;;18.60;96.20;;;;;;5101245;28;20594;-90
2021/03/31 12:19:16;;;;;;;32.80;21.00;;;18.60;98.60;;;;;;5113875;28;20157;-90
2021/03/31 12:21:42;;;;;;;37.60;21.85;;;18.60;97.80;;;;;;5106166;27;20065;-90
2021/03/31 12:24:08;;;;;;;33.63;19.50;;;18.80;96.60;;;;;;5113861;27;20106;-89
2021/03/31 12:27:02;;;;;;;34.00;20.25;;;18.80;93.80;;;;;;5102754;27;20479;-89
2021/03/31 12:29:47;;;;;;;35.03;21.25;;;18.80;99.90;;;;;;5091121;27;20047;-90
2021/03/31 12:32:14;;;;;;;34.78;22.85;;;19.00;98.60;;;;;;5097385;27;20073;-90
2021/03/31 12:35:01;;;;;;;32.08;18.80;;;19.20;98.80;;;;;;5104005;27;20131;-88
2021/03/31 12:37:28;;;;;;;36.83;19.70;;;19.50;99.90;;;;;;5115141;27;20112;-90
2021/03/31 12:39:54;;;;;;;32.30;19.73;;;19.80;99.90;;;;;;5097576;27;20103;-90
2021/03/31 12:42:41;;;;;;;30.95;19.70;;;20.00;98.90;;;;;;5109548;27;20051;-91
2021/03/31 12:45:27;;;;;;;39.00;21.70;;;20.30;99.90;;;;;;5083085;27;20047;-90
2021/03/31 12:47:53;;;;;;;33.13;19.95;;;20.70;99.90;;;;;;5121194;27;20854;-90
2021/03/31 12:50:39;;;;;;;37.22;22.88;;;21.00;99.60;;;;;;5100776;27;20067;-90
2021/03/31 12:53:33;;;;;;;29.67;21.02;;;21.20;95.30;;;;;;5117719;27;20134;-89
2021/03/31 12:56:20;;;;;;;33.55;22.35;;;21.60;97.00;;;;;;5103130;27;20047;-90
2021/03/31 12:59:06;;;;;;;35.78;22.50;;;22.00;95.40;;;;;;5083176;27;20158;-90
2021/03/31 13:01:33;;;;;;;43.13;21.98;;;22.30;90.80;;;;;;5108508;27;20122;-90
2021/03/31 13:04:20;;;;;;;38.05;21.63;;;22.60;85.40;;;;;;5102909;27;20074;-91
2021/03/31 13:07:06;;;;;;;45.97;23.40;;;22.90;78.30;;;;;;5116641;27;20483;-90
2021/03/31 13:09:32;;;;;;;38.25;22.38;;;23.30;67.80;;;;;;5122634;27;20052;-90
2021/03/31 13:12:00;;;;;;;36.83;22.27;;;23.30;72.20;;;;;;5118117;27;20051;-90